sensor_id;sensor_type;location;lat;lon;timestamp;P1;durP1;ratioP1;P2;durP2;ratioP2
12218;SDS011;6172;42.646;23.344;2023-07-20T00:02:02;5.05;;;1.50;;
12218;SDS011;6172;42.646;23.344;2023-07-20T00:04:30;5.40;;;1.33;;
12218;SDS011;6172;42.646;23.344;2023-07-20T00:06:57;4.32;;;1.25;;
12218;SDS011;6172;42.646;23.344;2023-07-20T00:09:24;7.95;;;2.03;;
12218;SDS011;6172;42.646;23.344;2023-07-20T00:11:51;7.57;;;1.65;;
12218;SDS011;6172;42.646;23.344;2023-07-20T00:14:19;8.20;;;1.60;;
12218;SDS011;6172;42.646;23.344;2023-07-20T00:16:49;5.63;;;1.55;;
12218;SDS011;6172;42.646;23.344;2023-07-20T00:19:20;6.18;;;1.77;;
12218;SDS011;6172;42.646;23.344;2023-07-20T00:21:48;4.80;;;1.50;;
12218;SDS011;6172;42.646;23.344;2023-07-20T00:24:15;6.00;;;1.55;;
12218;SDS011;6172;42.646;23.344;2023-07-20T00:26:42;7.60;;;1.65;;
12218;SDS011;6172;42.646;23.344;2023-07-20T00:29:08;5.65;;;1.75;;
12218;SDS011;6172;42.646;23.344;2023-07-20T00:31:36;5.07;;;1.55;;
12218;SDS011;6172;42.646;23.344;2023-07-20T00:34:04;6.10;;;1.85;;
12218;SDS011;6172;42.646;23.344;2023-07-20T00:36:31;6.45;;;1.83;;
12218;SDS011;6172;42.646;23.344;2023-07-20T00:38:58;5.13;;;1.70;;
12218;SDS011;6172;42.646;23.344;2023-07-20T00:41:26;4.10;;;1.58;;
12218;SDS011;6172;42.646;23.344;2023-07-20T00:43:54;4.85;;;1.77;;
12218;SDS011;6172;42.646;23.344;2023-07-20T00:46:21;4.68;;;1.67;;
12218;SDS011;6172;42.646;23.344;2023-07-20T00:48:50;6.68;;;1.80;;
12218;SDS011;6172;42.646;23.344;2023-07-20T00:51:19;5.93;;;1.92;;
12218;SDS011;6172;42.646;23.344;2023-07-20T00:53:47;7.43;;;2.13;;
12218;SDS011;6172;42.646;23.344;2023-07-20T00:56:14;7.20;;;2.08;;
12218;SDS011;6172;42.646;23.344;2023-07-20T00:58:41;5.80;;;2.13;;
12218;SDS011;6172;42.646;23.344;2023-07-20T01:01:08;5.38;;;2.22;;
12218;SDS011;6172;42.646;23.344;2023-07-20T01:03:36;5.90;;;2.40;;
12218;SDS011;6172;42.646;23.344;2023-07-20T01:06:07;7.18;;;2.50;;
12218;SDS011;6172;42.646;23.344;2023-07-20T01:08:45;6.78;;;2.65;;
12218;SDS011;6172;42.646;23.344;2023-07-20T01:11:22;6.47;;;1.95;;
12218;SDS011;6172;42.646;23.344;2023-07-20T01:13:58;6.57;;;1.95;;
12218;SDS011;6172;42.646;23.344;2023-07-20T01:16:26;3.67;;;1.95;;
12218;SDS011;6172;42.646;23.344;2023-07-20T01:18:53;8.13;;;2.25;;
12218;SDS011;6172;42.646;23.344;2023-07-20T01:21:21;3.75;;;1.60;;
12218;SDS011;6172;42.646;23.344;2023-07-20T01:24:00;6.43;;;1.90;;
12218;SDS011;6172;42.646;23.344;2023-07-20T01:27:00;4.25;;;1.85;;
12218;SDS011;6172;42.646;23.344;2023-07-20T01:29:54;4.18;;;2.13;;
12218;SDS011;6172;42.646;23.344;2023-07-20T01:32:36;6.07;;;2.00;;
12218;SDS011;6172;42.646;23.344;2023-07-20T01:35:06;6.88;;;1.95;;
12218;SDS011;6172;42.646;23.344;2023-07-20T01:37:35;3.42;;;1.50;;
12218;SDS011;6172;42.646;23.344;2023-07-20T01:40:05;5.53;;;1.73;;
12218;SDS011;6172;42.646;23.344;2023-07-20T01:42:33;4.30;;;1.95;;
12218;SDS011;6172;42.646;23.344;2023-07-20T01:45:00;4.68;;;1.65;;
12218;SDS011;6172;42.646;23.344;2023-07-20T01:47:27;6.15;;;1.60;;
12218;SDS011;6172;42.646;23.344;2023-07-20T01:49:55;4.40;;;1.70;;
12218;SDS011;6172;42.646;23.344;2023-07-20T01:52:22;3.75;;;1.30;;
12218;SDS011;6172;42.646;23.344;2023-07-20T01:54:49;5.82;;;1.67;;
12218;SDS011;6172;42.646;23.344;2023-07-20T01:57:16;5.93;;;1.83;;
12218;SDS011;6172;42.646;23.344;2023-07-20T01:59:43;7.68;;;2.15;;
12218;SDS011;6172;42.646;23.344;2023-07-20T02:02:10;3.97;;;1.95;;
12218;SDS011;6172;42.646;23.344;2023-07-20T02:04:37;4.80;;;1.73;;
12218;SDS011;6172;42.646;23.344;2023-07-20T02:07:05;5.97;;;2.05;;
12218;SDS011;6172;42.646;23.344;2023-07-20T02:09:32;2.70;;;1.33;;
12218;SDS011;6172;42.646;23.344;2023-07-20T02:11:59;5.55;;;1.50;;
12218;SDS011;6172;42.646;23.344;2023-07-20T02:14:26;6.30;;;1.85;;
12218;SDS011;6172;42.646;23.344;2023-07-20T02:16:52;5.43;;;2.03;;
12218;SDS011;6172;42.646;23.344;2023-07-20T02:19:24;6.25;;;2.22;;
12218;SDS011;6172;42.646;23.344;2023-07-20T02:21:51;6.13;;;1.60;;
12218;SDS011;6172;42.646;23.344;2023-07-20T02:24:19;5.18;;;1.60;;
12218;SDS011;6172;42.646;23.344;2023-07-20T02:26:46;5.43;;;1.95;;
12218;SDS011;6172;42.646;23.344;2023-07-20T02:29:13;6.35;;;1.50;;
12218;SDS011;6172;42.646;23.344;2023-07-20T02:31:40;4.60;;;2.30;;
12218;SDS011;6172;42.646;23.344;2023-07-20T02:34:08;5.30;;;2.05;;
12218;SDS011;6172;42.646;23.344;2023-07-20T02:36:35;6.55;;;1.60;;
12218;SDS011;6172;42.646;23.344;2023-07-20T02:39:02;7.97;;;2.30;;
12218;SDS011;6172;42.646;23.344;2023-07-20T02:41:32;3.60;;;1.83;;
12218;SDS011;6172;42.646;23.344;2023-07-20T02:44:00;6.78;;;2.05;;
12218;SDS011;6172;42.646;23.344;2023-07-20T02:46:28;4.55;;;1.77;;
12218;SDS011;6172;42.646;23.344;2023-07-20T02:48:55;4.78;;;1.55;;
12218;SDS011;6172;42.646;23.344;2023-07-20T02:51:22;5.97;;;1.83;;
12218;SDS011;6172;42.646;23.344;2023-07-20T02:53:49;5.78;;;1.80;;
12218;SDS011;6172;42.646;23.344;2023-07-20T02:56:16;2.95;;;1.80;;
12218;SDS011;6172;42.646;23.344;2023-07-20T02:58:44;7.60;;;1.90;;
12218;SDS011;6172;42.646;23.344;2023-07-20T03:01:12;5.45;;;1.92;;
12218;SDS011;6172;42.646;23.344;2023-07-20T03:03:40;4.30;;;1.95;;
12218;SDS011;6172;42.646;23.344;2023-07-20T03:06:11;8.38;;;2.35;;
12218;SDS011;6172;42.646;23.344;2023-07-20T03:08:39;12.25;;;2.50;;
12218;SDS011;6172;42.646;23.344;2023-07-20T03:11:12;7.38;;;2.70;;
12218;SDS011;6172;42.646;23.344;2023-07-20T03:13:42;15.45;;;3.17;;
12218;SDS011;6172;42.646;23.344;2023-07-20T03:16:12;10.90;;;2.65;;
12218;SDS011;6172;42.646;23.344;2023-07-20T03:18:43;7.95;;;2.10;;
12218;SDS011;6172;42.646;23.344;2023-07-20T03:21:10;8.93;;;2.35;;
12218;SDS011;6172;42.646;23.344;2023-07-20T03:23:37;6.78;;;2.20;;
12218;SDS011;6172;42.646;23.344;2023-07-20T03:26:04;6.57;;;2.05;;
12218;SDS011;6172;42.646;23.344;2023-07-20T03:28:33;10.68;;;2.30;;
12218;SDS011;6172;42.646;23.344;2023-07-20T03:31:00;10.82;;;2.03;;
12218;SDS011;6172;42.646;23.344;2023-07-20T03:33:29;7.50;;;2.40;;
12218;SDS011;6172;42.646;23.344;2023-07-20T03:35:56;9.75;;;2.55;;
12218;SDS011;6172;42.646;23.344;2023-07-20T03:38:23;6.57;;;2.20;;
12218;SDS011;6172;42.646;23.344;2023-07-20T03:40:52;8.48;;;2.67;;
12218;SDS011;6172;42.646;23.344;2023-07-20T03:43:21;8.23;;;2.80;;
12218;SDS011;6172;42.646;23.344;2023-07-20T03:45:48;13.57;;;2.83;;
12218;SDS011;6172;42.646;23.344;2023-07-20T03:48:16;7.15;;;2.28;;
12218;SDS011;6172;42.646;23.344;2023-07-20T03:50:45;8.70;;;2.28;;
12218;SDS011;6172;42.646;23.344;2023-07-20T03:53:13;6.03;;;2.30;;
12218;SDS011;6172;42.646;23.344;2023-07-20T03:55:40;9.30;;;2.10;;
12218;SDS011;6172;42.646;23.344;2023-07-20T03:58:07;7.47;;;2.00;;
12218;SDS011;6172;42.646;23.344;2023-07-20T04:00:34;6.10;;;2.25;;
12218;SDS011;6172;42.646;23.344;2023-07-20T04:03:01;6.57;;;2.20;;
12218;SDS011;6172;42.646;23.344;2023-07-20T04:05:28;4.72;;;2.22;;
12218;SDS011;6172;42.646;23.344;2023-07-20T04:07:56;8.43;;;2.97;;
12218;SDS011;6172;42.646;23.344;2023-07-20T04:10:24;7.50;;;2.72;;
12218;SDS011;6172;42.646;23.344;2023-07-20T04:12:51;8.10;;;2.45;;
12218;SDS011;6172;42.646;23.344;2023-07-20T04:15:17;11.93;;;3.03;;
12218;SDS011;6172;42.646;23.344;2023-07-20T04:17:44;6.43;;;2.65;;
12218;SDS011;6172;42.646;23.344;2023-07-20T04:20:13;10.88;;;2.78;;
12218;SDS011;6172;42.646;23.344;2023-07-20T04:22:40;7.05;;;2.17;;
12218;SDS011;6172;42.646;23.344;2023-07-20T04:25:09;9.20;;;2.65;;
12218;SDS011;6172;42.646;23.344;2023-07-20T04:27:36;4.70;;;2.25;;
12218;SDS011;6172;42.646;23.344;2023-07-20T04:30:03;5.43;;;2.70;;
12218;SDS011;6172;42.646;23.344;2023-07-20T04:32:30;5.97;;;2.80;;
12218;SDS011;6172;42.646;23.344;2023-07-20T04:34:59;9.00;;;3.50;;
12218;SDS011;6172;42.646;23.344;2023-07-20T04:37:28;9.32;;;2.97;;
12218;SDS011;6172;42.646;23.344;2023-07-20T04:39:55;11.60;;;3.50;;
12218;SDS011;6172;42.646;23.344;2023-07-20T04:42:24;11.63;;;3.63;;
12218;SDS011;6172;42.646;23.344;2023-07-20T04:44:54;13.05;;;3.85;;
12218;SDS011;6172;42.646;23.344;2023-07-20T04:47:21;7.57;;;3.22;;
12218;SDS011;6172;42.646;23.344;2023-07-20T04:49:50;13.88;;;3.25;;
12218;SDS011;6172;42.646;23.344;2023-07-20T04:52:30;8.05;;;2.97;;
12218;SDS011;6172;42.646;23.344;2023-07-20T04:54:57;7.55;;;3.25;;
12218;SDS011;6172;42.646;23.344;2023-07-20T04:57:26;7.50;;;3.45;;
12218;SDS011;6172;42.646;23.344;2023-07-20T04:59:55;8.75;;;3.45;;
12218;SDS011;6172;42.646;23.344;2023-07-20T05:02:22;6.25;;;3.40;;
12218;SDS011;6172;42.646;23.344;2023-07-20T05:04:50;8.25;;;3.63;;
12218;SDS011;6172;42.646;23.344;2023-07-20T05:07:18;7.78;;;2.88;;
12218;SDS011;6172;42.646;23.344;2023-07-20T05:09:45;8.27;;;3.30;;
12218;SDS011;6172;42.646;23.344;2023-07-20T05:12:13;8.35;;;3.70;;
12218;SDS011;6172;42.646;23.344;2023-07-20T05:14:41;8.13;;;3.50;;
12218;SDS011;6172;42.646;23.344;2023-07-20T05:17:08;9.95;;;2.97;;
12218;SDS011;6172;42.646;23.344;2023-07-20T05:19:35;9.65;;;3.60;;
12218;SDS011;6172;42.646;23.344;2023-07-20T05:22:02;13.13;;;3.83;;
12218;SDS011;6172;42.646;23.344;2023-07-20T05:24:30;12.43;;;4.32;;
12218;SDS011;6172;42.646;23.344;2023-07-20T05:26:57;6.10;;;2.80;;
12218;SDS011;6172;42.646;23.344;2023-07-20T05:29:24;2.83;;;1.92;;
12218;SDS011;6172;42.646;23.344;2023-07-20T05:31:53;8.30;;;2.97;;
12218;SDS011;6172;42.646;23.344;2023-07-20T05:34:21;9.60;;;2.60;;
12218;SDS011;6172;42.646;23.344;2023-07-20T05:39:37;9.23;;;2.60;;
12218;SDS011;6172;42.646;23.344;2023-07-20T05:42:04;8.30;;;2.28;;
12218;SDS011;6172;42.646;23.344;2023-07-20T05:44:31;7.55;;;3.25;;
12218;SDS011;6172;42.646;23.344;2023-07-20T05:46:59;10.18;;;3.55;;
12218;SDS011;6172;42.646;23.344;2023-07-20T05:49:27;5.93;;;2.83;;
12218;SDS011;6172;42.646;23.344;2023-07-20T05:51:54;6.40;;;2.85;;
12218;SDS011;6172;42.646;23.344;2023-07-20T05:54:23;4.35;;;2.65;;
12218;SDS011;6172;42.646;23.344;2023-07-20T05:56:50;3.72;;;1.80;;
12218;SDS011;6172;42.646;23.344;2023-07-20T05:59:19;3.00;;;2.05;;
12218;SDS011;6172;42.646;23.344;2023-07-20T06:01:46;9.85;;;2.80;;
12218;SDS011;6172;42.646;23.344;2023-07-20T06:04:15;3.85;;;2.25;;
12218;SDS011;6172;42.646;23.344;2023-07-20T06:06:43;6.18;;;2.28;;
12218;SDS011;6172;42.646;23.344;2023-07-20T06:09:09;7.65;;;2.47;;
12218;SDS011;6172;42.646;23.344;2023-07-20T06:11:37;6.88;;;2.47;;
12218;SDS011;6172;42.646;23.344;2023-07-20T06:14:04;12.40;;;2.97;;
12218;SDS011;6172;42.646;23.344;2023-07-20T06:16:31;11.23;;;3.22;;
12218;SDS011;6172;42.646;23.344;2023-07-20T06:18:59;9.10;;;2.70;;
12218;SDS011;6172;42.646;23.344;2023-07-20T06:21:27;8.32;;;3.80;;
12218;SDS011;6172;42.646;23.344;2023-07-20T06:23:54;8.40;;;2.67;;
12218;SDS011;6172;42.646;23.344;2023-07-20T06:26:21;4.88;;;2.70;;
12218;SDS011;6172;42.646;23.344;2023-07-20T06:28:48;8.35;;;2.33;;
12218;SDS011;6172;42.646;23.344;2023-07-20T06:31:16;7.00;;;2.38;;
12218;SDS011;6172;42.646;23.344;2023-07-20T06:33:43;7.80;;;2.35;;
12218;SDS011;6172;42.646;23.344;2023-07-20T06:36:10;8.15;;;2.78;;
12218;SDS011;6172;42.646;23.344;2023-07-20T06:38:38;6.13;;;2.53;;
12218;SDS011;6172;42.646;23.344;2023-07-20T06:41:05;8.55;;;2.35;;
12218;SDS011;6172;42.646;23.344;2023-07-20T06:43:32;7.57;;;2.13;;
12218;SDS011;6172;42.646;23.344;2023-07-20T06:45:59;6.20;;;1.98;;
12218;SDS011;6172;42.646;23.344;2023-07-20T06:48:25;7.10;;;2.78;;
12218;SDS011;6172;42.646;23.344;2023-07-20T06:50:52;5.90;;;2.42;;
12218;SDS011;6172;42.646;23.344;2023-07-20T06:53:20;6.28;;;3.47;;
12218;SDS011;6172;42.646;23.344;2023-07-20T06:55:48;8.05;;;2.45;;
12218;SDS011;6172;42.646;23.344;2023-07-20T06:58:15;6.82;;;2.78;;
12218;SDS011;6172;42.646;23.344;2023-07-20T07:00:43;5.82;;;2.40;;
12218;SDS011;6172;42.646;23.344;2023-07-20T07:03:09;8.90;;;3.00;;
12218;SDS011;6172;42.646;23.344;2023-07-20T07:05:36;5.32;;;2.38;;
12218;SDS011;6172;42.646;23.344;2023-07-20T07:08:03;5.68;;;2.22;;
12218;SDS011;6172;42.646;23.344;2023-07-20T07:10:30;5.85;;;3.22;;
12218;SDS011;6172;42.646;23.344;2023-07-20T07:12:59;6.82;;;3.15;;
12218;SDS011;6172;42.646;23.344;2023-07-20T07:15:26;6.53;;;3.05;;
12218;SDS011;6172;42.646;23.344;2023-07-20T07:17:53;7.90;;;2.80;;
12218;SDS011;6172;42.646;23.344;2023-07-20T07:20:20;8.52;;;3.47;;
12218;SDS011;6172;42.646;23.344;2023-07-20T07:22:46;8.07;;;2.35;;
12218;SDS011;6172;42.646;23.344;2023-07-20T07:25:13;8.63;;;2.65;;
12218;SDS011;6172;42.646;23.344;2023-07-20T07:27:41;8.32;;;2.53;;
12218;SDS011;6172;42.646;23.344;2023-07-20T07:30:10;8.25;;;3.42;;
12218;SDS011;6172;42.646;23.344;2023-07-20T07:32:38;7.22;;;3.55;;
12218;SDS011;6172;42.646;23.344;2023-07-20T07:35:05;6.38;;;3.88;;
12218;SDS011;6172;42.646;23.344;2023-07-20T07:37:32;9.40;;;3.50;;
12218;SDS011;6172;42.646;23.344;2023-07-20T07:40:00;11.48;;;3.63;;
12218;SDS011;6172;42.646;23.344;2023-07-20T07:42:28;11.68;;;3.63;;
12218;SDS011;6172;42.646;23.344;2023-07-20T07:44:55;11.20;;;3.83;;
12218;SDS011;6172;42.646;23.344;2023-07-20T07:47:23;10.75;;;3.92;;
12218;SDS011;6172;42.646;23.344;2023-07-20T07:49:50;6.57;;;3.40;;
12218;SDS011;6172;42.646;23.344;2023-07-20T07:52:17;10.15;;;3.90;;
12218;SDS011;6172;42.646;23.344;2023-07-20T07:54:43;9.80;;;3.70;;
12218;SDS011;6172;42.646;23.344;2023-07-20T07:57:10;7.70;;;4.25;;
12218;SDS011;6172;42.646;23.344;2023-07-20T07:59:39;11.80;;;4.05;;
12218;SDS011;6172;42.646;23.344;2023-07-20T08:02:05;8.55;;;3.58;;
12218;SDS011;6172;42.646;23.344;2023-07-20T08:04:33;8.13;;;3.60;;
12218;SDS011;6172;42.646;23.344;2023-07-20T08:07:04;12.30;;;3.42;;
12218;SDS011;6172;42.646;23.344;2023-07-20T08:09:31;7.47;;;3.53;;
12218;SDS011;6172;42.646;23.344;2023-07-20T08:11:58;11.80;;;3.67;;
12218;SDS011;6172;42.646;23.344;2023-07-20T08:14:25;8.80;;;3.75;;
12218;SDS011;6172;42.646;23.344;2023-07-20T08:16:53;11.02;;;3.80;;
12218;SDS011;6172;42.646;23.344;2023-07-20T08:19:20;9.52;;;3.38;;
12218;SDS011;6172;42.646;23.344;2023-07-20T08:21:48;9.02;;;3.45;;
12218;SDS011;6172;42.646;23.344;2023-07-20T08:24:15;12.73;;;3.47;;
12218;SDS011;6172;42.646;23.344;2023-07-20T08:26:41;6.75;;;2.95;;
12218;SDS011;6172;42.646;23.344;2023-07-20T08:29:08;8.68;;;2.90;;
12218;SDS011;6172;42.646;23.344;2023-07-20T08:31:35;11.35;;;2.72;;
12218;SDS011;6172;42.646;23.344;2023-07-20T08:34:02;10.88;;;3.05;;
12218;SDS011;6172;42.646;23.344;2023-07-20T08:36:29;8.05;;;2.40;;
12218;SDS011;6172;42.646;23.344;2023-07-20T08:38:58;5.47;;;1.95;;
12218;SDS011;6172;42.646;23.344;2023-07-20T08:41:28;6.80;;;1.55;;
12218;SDS011;6172;42.646;23.344;2023-07-20T08:43:55;9.15;;;2.35;;
12218;SDS011;6172;42.646;23.344;2023-07-20T08:46:24;5.32;;;1.65;;
12218;SDS011;6172;42.646;23.344;2023-07-20T08:48:53;5.28;;;1.63;;
12218;SDS011;6172;42.646;23.344;2023-07-20T08:51:21;8.85;;;2.15;;
12218;SDS011;6172;42.646;23.344;2023-07-20T08:53:48;13.77;;;2.55;;
12218;SDS011;6172;42.646;23.344;2023-07-20T08:56:18;4.70;;;1.65;;
12218;SDS011;6172;42.646;23.344;2023-07-20T08:58:46;8.32;;;2.17;;
12218;SDS011;6172;42.646;23.344;2023-07-20T09:01:14;7.13;;;2.00;;
12218;SDS011;6172;42.646;23.344;2023-07-20T09:03:41;4.95;;;1.70;;
12218;SDS011;6172;42.646;23.344;2023-07-20T09:06:12;5.70;;;1.88;;
12218;SDS011;6172;42.646;23.344;2023-07-20T09:08:39;6.10;;;2.08;;
12218;SDS011;6172;42.646;23.344;2023-07-20T09:11:07;5.15;;;1.50;;
12218;SDS011;6172;42.646;23.344;2023-07-20T09:13:35;4.75;;;1.80;;
12218;SDS011;6172;42.646;23.344;2023-07-20T09:16:04;9.02;;;2.15;;
12218;SDS011;6172;42.646;23.344;2023-07-20T09:18:31;5.47;;;2.35;;
12218;SDS011;6172;42.646;23.344;2023-07-20T09:21:01;4.63;;;1.70;;
12218;SDS011;6172;42.646;23.344;2023-07-20T09:23:32;7.13;;;1.60;;
12218;SDS011;6172;42.646;23.344;2023-07-20T09:25:59;10.00;;;1.90;;
12218;SDS011;6172;42.646;23.344;2023-07-20T09:28:26;7.68;;;1.88;;
12218;SDS011;6172;42.646;23.344;2023-07-20T09:30:55;4.22;;;1.60;;
12218;SDS011;6172;42.646;23.344;2023-07-20T09:33:23;3.55;;;1.50;;
12218;SDS011;6172;42.646;23.344;2023-07-20T09:35:50;2.63;;;1.60;;
12218;SDS011;6172;42.646;23.344;2023-07-20T09:38:17;3.95;;;1.63;;
12218;SDS011;6172;42.646;23.344;2023-07-20T09:40:44;7.05;;;1.98;;
12218;SDS011;6172;42.646;23.344;2023-07-20T09:43:11;4.57;;;1.90;;
12218;SDS011;6172;42.646;23.344;2023-07-20T09:45:41;6.70;;;1.73;;
12218;SDS011;6172;42.646;23.344;2023-07-20T09:48:10;4.72;;;1.40;;
12218;SDS011;6172;42.646;23.344;2023-07-20T09:50:41;4.53;;;1.40;;
12218;SDS011;6172;42.646;23.344;2023-07-20T09:53:09;8.23;;;1.08;;
12218;SDS011;6172;42.646;23.344;2023-07-20T09:55:39;4.43;;;1.40;;
12218;SDS011;6172;42.646;23.344;2023-07-20T09:58:08;8.60;;;2.17;;
12218;SDS011;6172;42.646;23.344;2023-07-20T10:00:36;6.78;;;1.80;;
12218;SDS011;6172;42.646;23.344;2023-07-20T10:03:04;5.95;;;1.55;;
12218;SDS011;6172;42.646;23.344;2023-07-20T10:05:35;8.15;;;1.38;;
12218;SDS011;6172;42.646;23.344;2023-07-20T10:08:05;5.30;;;1.55;;
12218;SDS011;6172;42.646;23.344;2023-07-20T10:10:37;6.07;;;1.80;;
12218;SDS011;6172;42.646;23.344;2023-07-20T10:13:08;7.22;;;1.52;;
12218;SDS011;6172;42.646;23.344;2023-07-20T10:15:42;4.30;;;1.65;;
12218;SDS011;6172;42.646;23.344;2023-07-20T10:18:12;7.03;;;1.88;;
12218;SDS011;6172;42.646;23.344;2023-07-20T10:20:46;8.07;;;1.90;;
12218;SDS011;6172;42.646;23.344;2023-07-20T10:23:15;5.30;;;1.75;;
12218;SDS011;6172;42.646;23.344;2023-07-20T10:25:42;4.18;;;1.95;;
12218;SDS011;6172;42.646;23.344;2023-07-20T10:28:10;8.20;;;1.80;;
12218;SDS011;6172;42.646;23.344;2023-07-20T10:30:37;9.85;;;1.70;;
12218;SDS011;6172;42.646;23.344;2023-07-20T10:33:05;6.78;;;1.65;;
12218;SDS011;6172;42.646;23.344;2023-07-20T10:38:19;3.30;;;1.67;;
12218;SDS011;6172;42.646;23.344;2023-07-20T10:40:53;7.20;;;1.70;;
12218;SDS011;6172;42.646;23.344;2023-07-20T10:43:21;6.35;;;1.65;;
12218;SDS011;6172;42.646;23.344;2023-07-20T10:45:48;7.22;;;1.60;;
12218;SDS011;6172;42.646;23.344;2023-07-20T10:48:17;4.47;;;1.45;;
12218;SDS011;6172;42.646;23.344;2023-07-20T10:50:46;6.43;;;2.20;;
12218;SDS011;6172;42.646;23.344;2023-07-20T10:53:38;4.15;;;1.73;;
12218;SDS011;6172;42.646;23.344;2023-07-20T10:56:05;6.20;;;2.00;;
12218;SDS011;6172;42.646;23.344;2023-07-20T10:58:33;6.90;;;1.35;;
12218;SDS011;6172;42.646;23.344;2023-07-20T11:01:01;4.60;;;1.70;;
12218;SDS011;6172;42.646;23.344;2023-07-20T11:03:30;3.33;;;1.83;;
12218;SDS011;6172;42.646;23.344;2023-07-20T11:05:57;6.63;;;2.58;;
12218;SDS011;6172;42.646;23.344;2023-07-20T11:08:41;7.47;;;2.10;;
12218;SDS011;6172;42.646;23.344;2023-07-20T11:13:55;6.30;;;2.00;;
12218;SDS011;6172;42.646;23.344;2023-07-20T11:16:39;6.20;;;2.25;;
12218;SDS011;6172;42.646;23.344;2023-07-20T11:19:13;6.95;;;2.58;;
12218;SDS011;6172;42.646;23.344;2023-07-20T11:21:42;7.80;;;2.30;;
12218;SDS011;6172;42.646;23.344;2023-07-20T11:24:11;5.70;;;2.25;;
12218;SDS011;6172;42.646;23.344;2023-07-20T11:26:42;4.72;;;1.90;;
12218;SDS011;6172;42.646;23.344;2023-07-20T11:29:09;5.80;;;2.42;;
12218;SDS011;6172;42.646;23.344;2023-07-20T11:31:37;7.45;;;2.85;;
12218;SDS011;6172;42.646;23.344;2023-07-20T11:34:05;5.35;;;2.80;;
12218;SDS011;6172;42.646;23.344;2023-07-20T11:36:31;6.97;;;2.85;;
12218;SDS011;6172;42.646;23.344;2023-07-20T11:38:59;5.93;;;2.78;;
12218;SDS011;6172;42.646;23.344;2023-07-20T11:41:31;6.95;;;2.80;;
12218;SDS011;6172;42.646;23.344;2023-07-20T11:43:59;7.22;;;2.90;;
12218;SDS011;6172;42.646;23.344;2023-07-20T11:46:27;10.75;;;3.45;;
12218;SDS011;6172;42.646;23.344;2023-07-20T11:48:58;6.03;;;3.05;;
12218;SDS011;6172;42.646;23.344;2023-07-20T11:51:28;8.50;;;3.42;;
12218;SDS011;6172;42.646;23.344;2023-07-20T11:53:55;7.18;;;4.03;;
12218;SDS011;6172;42.646;23.344;2023-07-20T11:56:25;5.93;;;3.85;;
12218;SDS011;6172;42.646;23.344;2023-07-20T11:58:56;7.90;;;4.30;;
12218;SDS011;6172;42.646;23.344;2023-07-20T12:01:25;4.47;;;3.80;;
12218;SDS011;6172;42.646;23.344;2023-07-20T12:03:54;6.07;;;3.90;;
12218;SDS011;6172;42.646;23.344;2023-07-20T12:06:22;6.93;;;3.67;;
12218;SDS011;6172;42.646;23.344;2023-07-20T12:08:50;5.82;;;3.97;;
12218;SDS011;6172;42.646;23.344;2023-07-20T12:11:30;7.68;;;3.85;;
12218;SDS011;6172;42.646;23.344;2023-07-20T12:14:00;7.07;;;3.80;;
12218;SDS011;6172;42.646;23.344;2023-07-20T12:16:28;6.00;;;3.45;;
12218;SDS011;6172;42.646;23.344;2023-07-20T12:19:02;6.57;;;3.80;;
12218;SDS011;6172;42.646;23.344;2023-07-20T12:21:29;4.35;;;3.40;;
12218;SDS011;6172;42.646;23.344;2023-07-20T12:23:56;10.07;;;3.60;;
12218;SDS011;6172;42.646;23.344;2023-07-20T12:26:24;10.60;;;4.03;;
12218;SDS011;6172;42.646;23.344;2023-07-20T12:28:51;15.63;;;4.47;;
12218;SDS011;6172;42.646;23.344;2023-07-20T12:31:20;11.73;;;2.83;;
12218;SDS011;6172;42.646;23.344;2023-07-20T12:33:49;7.10;;;3.03;;
12218;SDS011;6172;42.646;23.344;2023-07-20T12:36:16;6.32;;;2.28;;
12218;SDS011;6172;42.646;23.344;2023-07-20T12:38:43;9.18;;;2.47;;
12218;SDS011;6172;42.646;23.344;2023-07-20T12:41:10;6.43;;;2.47;;
12218;SDS011;6172;42.646;23.344;2023-07-20T12:43:39;7.50;;;2.70;;
12218;SDS011;6172;42.646;23.344;2023-07-20T12:46:06;7.90;;;3.00;;
12218;SDS011;6172;42.646;23.344;2023-07-20T12:48:35;13.00;;;4.00;;
12218;SDS011;6172;42.646;23.344;2023-07-20T12:51:05;9.52;;;2.60;;
12218;SDS011;6172;42.646;23.344;2023-07-20T12:53:32;5.15;;;2.17;;
12218;SDS011;6172;42.646;23.344;2023-07-20T12:55:59;6.43;;;2.35;;
12218;SDS011;6172;42.646;23.344;2023-07-20T12:58:26;9.88;;;2.15;;
12218;SDS011;6172;42.646;23.344;2023-07-20T13:00:54;8.38;;;2.05;;
12218;SDS011;6172;42.646;23.344;2023-07-20T13:03:21;10.13;;;2.67;;
12218;SDS011;6172;42.646;23.344;2023-07-20T13:05:50;8.38;;;2.35;;
12218;SDS011;6172;42.646;23.344;2023-07-20T13:08:16;6.32;;;2.10;;
12218;SDS011;6172;42.646;23.344;2023-07-20T13:10:44;5.60;;;1.90;;
12218;SDS011;6172;42.646;23.344;2023-07-20T13:13:14;7.38;;;2.47;;
12218;SDS011;6172;42.646;23.344;2023-07-20T13:15:41;9.30;;;2.38;;
12218;SDS011;6172;42.646;23.344;2023-07-20T13:18:09;8.73;;;2.65;;
12218;SDS011;6172;42.646;23.344;2023-07-20T13:20:37;5.03;;;2.30;;
12218;SDS011;6172;42.646;23.344;2023-07-20T13:23:05;7.38;;;2.17;;
12218;SDS011;6172;42.646;23.344;2023-07-20T13:25:32;7.07;;;2.00;;
12218;SDS011;6172;42.646;23.344;2023-07-20T13:27:59;6.38;;;1.95;;
12218;SDS011;6172;42.646;23.344;2023-07-20T13:30:26;4.90;;;1.73;;
12218;SDS011;6172;42.646;23.344;2023-07-20T13:32:53;4.32;;;2.00;;
12218;SDS011;6172;42.646;23.344;2023-07-20T13:35:20;5.10;;;1.90;;
12218;SDS011;6172;42.646;23.344;2023-07-20T13:37:46;5.70;;;2.17;;
12218;SDS011;6172;42.646;23.344;2023-07-20T13:40:15;7.25;;;2.33;;
12218;SDS011;6172;42.646;23.344;2023-07-20T13:42:43;7.70;;;2.53;;
12218;SDS011;6172;42.646;23.344;2023-07-20T13:45:11;9.40;;;2.17;;
12218;SDS011;6172;42.646;23.344;2023-07-20T13:47:37;6.75;;;1.70;;
12218;SDS011;6172;42.646;23.344;2023-07-20T13:50:05;5.53;;;1.98;;
12218;SDS011;6172;42.646;23.344;2023-07-20T13:52:32;8.02;;;2.15;;
12218;SDS011;6172;42.646;23.344;2023-07-20T13:55:00;6.10;;;1.80;;
12218;SDS011;6172;42.646;23.344;2023-07-20T13:57:28;5.63;;;1.70;;
12218;SDS011;6172;42.646;23.344;2023-07-20T13:59:55;6.18;;;2.05;;
12218;SDS011;6172;42.646;23.344;2023-07-20T14:02:22;6.65;;;2.13;;
12218;SDS011;6172;42.646;23.344;2023-07-20T14:04:49;5.45;;;1.90;;
12218;SDS011;6172;42.646;23.344;2023-07-20T14:07:16;4.75;;;1.90;;
12218;SDS011;6172;42.646;23.344;2023-07-20T14:09:42;4.55;;;2.55;;
12218;SDS011;6172;42.646;23.344;2023-07-20T14:12:09;6.35;;;1.58;;
12218;SDS011;6172;42.646;23.344;2023-07-20T14:14:40;8.63;;;1.70;;
12218;SDS011;6172;42.646;23.344;2023-07-20T14:17:07;7.38;;;2.17;;
12218;SDS011;6172;42.646;23.344;2023-07-20T14:19:34;6.43;;;1.45;;
12218;SDS011;6172;42.646;23.344;2023-07-20T14:22:03;4.07;;;1.50;;
12218;SDS011;6172;42.646;23.344;2023-07-20T14:24:31;5.55;;;1.45;;
12218;SDS011;6172;42.646;23.344;2023-07-20T14:26:58;7.18;;;1.75;;
12218;SDS011;6172;42.646;23.344;2023-07-20T14:29:26;9.25;;;1.98;;
12218;SDS011;6172;42.646;23.344;2023-07-20T14:31:57;6.25;;;1.65;;
12218;SDS011;6172;42.646;23.344;2023-07-20T14:34:24;6.45;;;1.50;;
12218;SDS011;6172;42.646;23.344;2023-07-20T14:36:52;12.55;;;2.08;;
12218;SDS011;6172;42.646;23.344;2023-07-20T14:39:19;7.95;;;1.90;;
12218;SDS011;6172;42.646;23.344;2023-07-20T14:41:46;7.30;;;1.50;;
12218;SDS011;6172;42.646;23.344;2023-07-20T14:44:13;7.70;;;1.55;;
12218;SDS011;6172;42.646;23.344;2023-07-20T14:46:39;6.78;;;2.30;;
12218;SDS011;6172;42.646;23.344;2023-07-20T14:49:07;10.73;;;2.20;;
12218;SDS011;6172;42.646;23.344;2023-07-20T14:51:35;7.72;;;2.45;;
12218;SDS011;6172;42.646;23.344;2023-07-20T14:54:08;6.28;;;2.03;;
12218;SDS011;6172;42.646;23.344;2023-07-20T14:56:35;3.95;;;1.75;;
12218;SDS011;6172;42.646;23.344;2023-07-20T14:59:02;4.50;;;1.73;;
12218;SDS011;6172;42.646;23.344;2023-07-20T15:01:31;10.18;;;1.83;;